createdAt,value
2022-12-15T00:00:00.707Z,40.15
2022-12-15T00:02:47.282Z,39.95
2022-12-15T00:05:32.559Z,38.88
2022-12-15T00:08:24.801Z,38.25
2022-12-15T00:11:10.017Z,37.92
2022-12-15T00:13:55.527Z,38.35
2022-12-15T00:16:41.156Z,43.03
2022-12-15T00:19:28.176Z,40.42
2022-12-15T00:22:13.639Z,39.65
2022-12-15T00:24:59.186Z,41.35
2022-12-15T00:27:44.591Z,41.53
2022-12-15T00:30:30.454Z,36.38
2022-12-15T00:33:15.741Z,40.45
2022-12-15T00:36:02.290Z,38.63
2022-12-15T00:38:43.590Z,35.97
2022-12-15T00:41:12.817Z,35.95
2022-12-15T00:43:40.659Z,36.38
2022-12-15T00:46:26.374Z,36.67
2022-12-15T00:48:54.243Z,37.28
2022-12-15T00:51:22.571Z,37.95
2022-12-15T00:54:11.860Z,42.37
2022-12-15T00:56:59.961Z,36.15
2022-12-15T00:59:45.416Z,40.72
2022-12-15T01:02:30.935Z,39.03
2022-12-15T01:05:16.592Z,36.30
2022-12-15T01:08:03.207Z,34.90
2022-12-15T01:10:48.617Z,36.25
2022-12-15T01:13:34.196Z,37.83
2022-12-15T01:16:19.778Z,39.00
2022-12-15T01:19:04.940Z,37.42
2022-12-15T01:21:33.333Z,41.30
2022-12-15T01:24:02.407Z,37.40
2022-12-15T01:26:30.138Z,36.65
2022-12-15T01:28:57.933Z,37.92
2022-12-15T01:31:25.660Z,39.38
2022-12-15T01:33:54.494Z,38.83
2022-12-15T01:36:22.192Z,40.17
2022-12-15T01:38:54.099Z,37.55
2022-12-15T01:41:22.924Z,34.78
2022-12-15T01:43:50.746Z,33.33
2022-12-15T01:46:21.043Z,36.55
2022-12-15T01:48:53.335Z,35.75
2022-12-15T01:51:27.825Z,32.60
2022-12-15T01:54:01.479Z,39.40
2022-12-15T01:56:37.718Z,38.50
2022-12-15T01:59:08.626Z,33.45
2022-12-15T02:01:36.680Z,36.03
2022-12-15T02:04:04.725Z,34.10
2022-12-15T02:06:32.478Z,35.80
2022-12-15T02:09:02.169Z,31.88
2022-12-15T02:11:45.651Z,35.53
2022-12-15T02:14:18.812Z,35.38
2022-12-15T02:17:03.010Z,31.10
2022-12-15T02:19:49.955Z,33.80
2022-12-15T02:22:28.304Z,32.95
2022-12-15T02:25:11.265Z,33.83
2022-12-15T02:27:56.535Z,32.38
2022-12-15T02:30:34.374Z,32.08
2022-12-15T02:33:11.320Z,31.13
2022-12-15T02:35:48.807Z,36.40
2022-12-15T02:38:16.650Z,37.13
2022-12-15T02:40:44.365Z,32.35
2022-12-15T02:43:12.382Z,36.03
2022-12-15T02:45:55.539Z,37.08
2022-12-15T02:48:30.626Z,36.75
2022-12-15T02:51:20.995Z,37.92
2022-12-15T02:54:07.887Z,41.28
2022-12-15T02:56:42.310Z,38.33
2022-12-15T02:59:15.894Z,40.63
2022-12-15T03:01:50.824Z,38.17
2022-12-15T03:04:20.261Z,32.78
2022-12-15T03:09:28.796Z,38.00
2022-12-15T03:11:56.578Z,40.65
2022-12-15T03:14:25.410Z,39.35
2022-12-15T03:16:55.597Z,31.98
2022-12-15T03:19:24.034Z,32.85
2022-12-15T03:21:51.818Z,33.08
2022-12-15T03:24:19.789Z,33.05
2022-12-15T03:26:49.923Z,32.95
2022-12-15T03:29:18.035Z,32.95
2022-12-15T03:31:46.125Z,36.67
2022-12-15T03:34:18.964Z,34.08
2022-12-15T03:36:46.926Z,31.50
2022-12-15T03:39:14.773Z,33.35
2022-12-15T03:41:42.804Z,32.80
2022-12-15T03:44:10.681Z,35.03
2022-12-15T03:46:38.470Z,38.65
2022-12-15T03:49:06.852Z,34.58
2022-12-15T03:51:36.000Z,32.90
2022-12-15T03:54:03.770Z,40.20
2022-12-15T03:56:32.397Z,35.72
2022-12-15T03:59:00.181Z,34.78
2022-12-15T04:01:30.108Z,34.20
2022-12-15T04:04:01.201Z,35.33
2022-12-15T04:06:29.992Z,39.40
2022-12-15T04:08:59.294Z,32.97
2022-12-15T04:11:27.112Z,34.15
2022-12-15T04:13:55.027Z,37.05
2022-12-15T04:16:22.984Z,39.22
2022-12-15T04:19:10.903Z,33.58
2022-12-15T04:21:37.673Z,38.45
2022-12-15T04:24:24.995Z,32.45
2022-12-15T04:27:10.256Z,34.13
2022-12-15T04:29:55.665Z,36.42
2022-12-15T04:32:41.537Z,32.78
2022-12-15T04:35:27.248Z,35.60
2022-12-15T04:38:12.503Z,38.88
2022-12-15T04:40:59.249Z,33.95
2022-12-15T04:43:44.447Z,37.20
2022-12-15T04:46:29.870Z,36.08
2022-12-15T04:49:15.166Z,33.72
2022-12-15T04:52:00.088Z,34.20
2022-12-15T04:54:45.418Z,37.75
2022-12-15T04:57:32.088Z,36.10
2022-12-15T05:00:17.251Z,41.67
2022-12-15T05:03:02.733Z,34.13
2022-12-15T05:05:47.980Z,31.48
2022-12-15T05:08:33.355Z,29.27
2022-12-15T05:11:18.763Z,34.92
2022-12-15T05:14:05.498Z,38.20
2022-12-15T05:16:51.013Z,27.40
2022-12-15T05:19:36.112Z,33.35
2022-12-15T05:22:21.532Z,32.28
2022-12-15T05:25:06.577Z,31.98
2022-12-15T05:27:51.993Z,27.85
2022-12-15T05:30:38.800Z,31.70
2022-12-15T05:33:06.807Z,32.40
2022-12-15T05:35:34.527Z,30.38
2022-12-15T05:38:02.428Z,31.05
2022-12-15T05:40:30.257Z,36.63
2022-12-15T05:42:58.996Z,30.02
2022-12-15T05:45:28.662Z,37.50
2022-12-15T05:47:57.088Z,30.58
2022-12-15T05:50:24.876Z,30.63
2022-12-15T05:52:52.807Z,35.17
2022-12-15T05:55:20.583Z,36.28
2022-12-15T05:57:52.150Z,40.08
2022-12-15T06:00:20.436Z,34.92
2022-12-15T06:02:49.980Z,37.47
2022-12-15T06:05:18.328Z,43.22
2022-12-15T06:07:46.131Z,38.50
2022-12-15T06:10:13.999Z,33.28
2022-12-15T06:12:41.808Z,31.73
2022-12-15T06:15:10.407Z,38.20
2022-12-15T06:17:38.138Z,32.47
2022-12-15T06:20:08.555Z,33.85
2022-12-15T06:22:36.302Z,33.63
2022-12-15T06:25:04.312Z,32.05
2022-12-15T06:27:32.129Z,32.60
2022-12-15T06:29:59.869Z,37.55
2022-12-15T06:32:27.682Z,36.80
2022-12-15T06:34:55.465Z,35.30
2022-12-15T06:37:24.555Z,32.55
2022-12-15T06:39:52.433Z,37.40
2022-12-15T06:42:20.141Z,35.50
2022-12-15T06:44:47.885Z,35.05
2022-12-15T06:47:18.618Z,41.08
2022-12-15T06:49:46.363Z,42.03
2022-12-15T06:52:14.216Z,37.78
2022-12-15T06:54:43.447Z,37.67
2022-12-15T06:59:39.192Z,34.85
2022-12-15T07:02:14.642Z,34.08
2022-12-15T07:04:42.624Z,36.33
2022-12-15T07:07:10.817Z,34.90
2022-12-15T07:09:38.598Z,37.25
2022-12-15T07:12:08.492Z,35.22
2022-12-15T07:14:36.229Z,32.80
2022-12-15T07:17:04.169Z,32.88
2022-12-15T07:19:31.981Z,46.95
2022-12-15T07:22:01.271Z,35.67
2022-12-15T07:26:57.152Z,46.08
2022-12-15T07:29:26.362Z,37.40
2022-12-15T07:31:54.181Z,37.45
2022-12-15T07:34:21.980Z,38.80
2022-12-15T07:36:52.479Z,48.97
2022-12-15T07:39:21.166Z,44.58
2022-12-15T07:41:49.260Z,38.47
2022-12-15T07:44:17.501Z,39.27
2022-12-15T07:46:49.080Z,38.00
2022-12-15T07:49:17.316Z,43.35
2022-12-15T07:51:45.408Z,44.58
2022-12-15T07:54:14.052Z,54.22
2022-12-15T07:56:42.428Z,49.53
2022-12-15T07:59:10.345Z,40.70
2022-12-15T08:01:38.269Z,42.47
2022-12-15T08:04:07.660Z,47.63
2022-12-15T08:09:03.386Z,39.47
2022-12-15T08:11:35.183Z,37.45
2022-12-15T08:14:05.459Z,38.22
2022-12-15T08:16:36.496Z,38.45
2022-12-15T08:19:05.774Z,36.55
2022-12-15T08:21:34.978Z,32.67
2022-12-15T08:24:02.991Z,27.05
2022-12-15T08:26:31.676Z,26.33
2022-12-15T08:29:31.992Z,29.08
2022-12-15T08:31:52.204Z,28.25
2022-12-15T08:34:20.547Z,31.77
2022-12-15T08:36:49.912Z,30.05
2022-12-15T08:41:45.762Z,28.30
2022-12-15T08:44:13.627Z,30.58
2022-12-15T08:46:41.461Z,40.00
2022-12-15T08:49:09.805Z,49.67
2022-12-15T08:51:37.562Z,36.35
2022-12-15T08:54:06.771Z,31.67
2022-12-15T08:56:34.546Z,29.35
2022-12-15T08:59:03.519Z,28.90
2022-12-15T09:01:33.148Z,29.38
2022-12-15T09:04:02.061Z,32.42
2022-12-15T09:06:32.369Z,31.27
2022-12-15T09:09:02.513Z,37.17
2022-12-15T09:11:32.635Z,60.63
2022-12-15T09:14:00.482Z,40.60
2022-12-15T09:16:29.027Z,33.80
2022-12-15T09:18:58.697Z,29.02
2022-12-15T09:21:28.031Z,51.95
2022-12-15T09:24:00.418Z,53.33
2022-12-15T09:26:32.225Z,34.05
2022-12-15T09:29:01.795Z,38.90
2022-12-15T09:31:32.515Z,35.67
2022-12-15T09:34:01.782Z,25.40
2022-12-15T09:36:30.836Z,23.30
2022-12-15T09:38:59.290Z,23.58
2022-12-15T09:41:29.422Z,48.73
2022-12-15T09:44:01.118Z,308.13
2022-12-15T09:46:41.128Z,145.98
2022-12-15T09:49:16.122Z,98.15
2022-12-15T09:51:52.019Z,57.28
2022-12-15T09:54:22.507Z,69.85
2022-12-15T09:56:55.886Z,50.15
2022-12-15T09:59:33.770Z,91.45
2022-12-15T10:02:18.296Z,139.00
2022-12-15T10:04:55.650Z,39.08
2022-12-15T10:07:30.610Z,22.92
2022-12-15T10:09:58.457Z,18.70
2022-12-15T10:12:30.776Z,26.60
2022-12-15T10:15:10.111Z,50.35
2022-12-15T10:20:18.907Z,47.63
2022-12-15T10:22:50.326Z,42.80
2022-12-15T10:25:29.446Z,62.15
2022-12-15T10:30:50.377Z,49.35
2022-12-15T10:33:20.968Z,35.65
2022-12-15T10:35:49.709Z,23.65
2022-12-15T10:38:25.670Z,27.05
2022-12-15T10:40:57.311Z,25.40
2022-12-15T10:43:28.432Z,20.20
2022-12-15T10:46:08.297Z,18.50
2022-12-15T10:48:36.731Z,17.23
2022-12-15T10:51:22.275Z,16.67
2022-12-15T10:53:52.683Z,24.95
2022-12-15T10:56:32.732Z,20.35
2022-12-15T10:59:24.631Z,19.15
2022-12-15T11:01:54.308Z,19.87
2022-12-15T11:04:28.735Z,21.45
2022-12-15T11:07:00.566Z,17.67
2022-12-15T11:09:34.057Z,22.05
2022-12-15T11:12:19.927Z,19.33
2022-12-15T11:14:49.397Z,20.83
2022-12-15T11:17:22.317Z,22.40
2022-12-15T11:20:01.863Z,20.85
2022-12-15T11:22:40.914Z,16.20
2022-12-15T11:25:25.577Z,21.30
2022-12-15T11:27:57.373Z,22.67
2022-12-15T11:30:27.588Z,20.30
2022-12-15T11:33:00.210Z,22.40
2022-12-15T11:35:34.044Z,20.20
2022-12-15T11:38:14.080Z,24.40
2022-12-15T11:40:43.200Z,23.70
2022-12-15T11:43:24.374Z,15.07
2022-12-15T11:46:19.700Z,20.00
2022-12-15T11:49:03.595Z,38.00
2022-12-15T11:51:40.523Z,37.35
2022-12-15T11:54:16.696Z,32.25
2022-12-15T11:56:49.100Z,25.83
2022-12-15T11:59:51.078Z,17.13
2022-12-15T12:02:45.198Z,46.90
2022-12-15T12:05:30.779Z,23.80
2022-12-15T12:08:08.762Z,17.60
2022-12-15T12:10:41.269Z,17.50
2022-12-15T12:13:21.480Z,15.85
2022-12-15T12:15:58.506Z,15.65
2022-12-15T12:18:29.934Z,18.48
2022-12-15T12:21:05.156Z,18.13
2022-12-15T12:23:39.593Z,12.65
2022-12-15T12:26:13.504Z,13.15
2022-12-15T12:28:48.720Z,12.93
2022-12-15T12:31:27.835Z,20.60
2022-12-15T12:33:59.395Z,22.63
2022-12-15T12:36:28.680Z,18.50
2022-12-15T12:38:59.198Z,18.73
2022-12-15T12:41:37.417Z,20.58
2022-12-15T12:44:12.153Z,23.15
2022-12-15T12:46:44.266Z,23.50
2022-12-15T12:49:22.839Z,17.13
2022-12-15T12:51:58.605Z,23.75
2022-12-15T12:54:44.119Z,19.92
2022-12-15T12:57:31.596Z,20.30
2022-12-15T13:00:02.670Z,16.60
2022-12-15T13:03:16.334Z,23.90
2022-12-15T13:05:47.129Z,20.52
2022-12-15T13:08:51.056Z,19.70
2022-12-15T13:11:56.358Z,15.23
2022-12-15T13:14:46.695Z,19.02
2022-12-15T13:17:27.217Z,27.05
2022-12-15T13:23:18.756Z,27.08
2022-12-15T13:25:53.681Z,19.40
2022-12-15T13:28:32.380Z,16.95
2022-12-15T13:31:15.819Z,18.90
2022-12-15T13:33:56.363Z,19.45
2022-12-15T13:36:54.722Z,20.95
2022-12-15T13:39:56.109Z,21.05
2022-12-15T13:42:38.741Z,19.08
2022-12-15T13:45:51.197Z,20.55
2022-12-15T13:48:38.423Z,16.20
2022-12-15T13:51:30.136Z,17.00
2022-12-15T13:54:03.007Z,19.98
2022-12-15T13:56:58.301Z,17.70
2022-12-15T13:59:45.483Z,16.50
2022-12-15T14:02:26.065Z,19.92
2022-12-15T14:05:10.526Z,14.70
2022-12-15T14:07:38.679Z,13.23
2022-12-15T14:10:16.867Z,17.55
2022-12-15T14:12:45.725Z,18.92
2022-12-15T14:15:17.640Z,18.52
2022-12-15T14:17:49.875Z,16.40
2022-12-15T14:20:21.111Z,26.40
2022-12-15T14:22:52.510Z,19.35
2022-12-15T14:25:23.170Z,23.75
2022-12-15T14:27:51.726Z,30.77
2022-12-15T14:30:29.296Z,19.58
2022-12-15T14:33:06.925Z,20.02
2022-12-15T14:35:38.501Z,23.90
2022-12-15T14:38:09.222Z,21.75
2022-12-15T14:40:38.757Z,23.30
2022-12-15T14:43:10.287Z,24.25
2022-12-15T14:45:39.530Z,24.10
2022-12-15T14:51:00.803Z,21.63
2022-12-15T14:53:32.822Z,25.60
2022-12-15T14:56:15.674Z,23.13
2022-12-15T14:58:43.640Z,25.02
2022-12-15T15:01:25.850Z,25.23
2022-12-15T15:04:04.124Z,27.05
2022-12-15T15:06:36.000Z,22.43
2022-12-15T15:09:21.107Z,24.70
2022-12-15T15:11:51.387Z,21.63
2022-12-15T15:14:23.657Z,26.35
2022-12-15T15:17:06.053Z,24.95
2022-12-15T15:19:39.620Z,24.77
2022-12-15T15:22:30.549Z,27.17
2022-12-15T15:24:58.374Z,30.05
2022-12-15T15:27:37.398Z,24.58
2022-12-15T15:30:17.255Z,34.72
2022-12-15T15:32:54.406Z,28.42
2022-12-15T15:35:23.326Z,28.75
2022-12-15T15:37:53.183Z,28.58
2022-12-15T15:40:21.004Z,31.35
2022-12-15T15:42:49.302Z,32.83
2022-12-15T15:45:17.244Z,41.55
2022-12-15T15:47:48.272Z,30.52
2022-12-15T15:50:22.209Z,34.53
2022-12-15T15:52:50.098Z,31.50
2022-12-15T15:55:28.331Z,32.75
2022-12-15T15:57:56.258Z,32.80
2022-12-15T16:00:26.197Z,49.50
2022-12-15T16:02:54.571Z,34.65
2022-12-15T16:05:23.911Z,41.72
2022-12-15T16:07:51.751Z,37.72
2022-12-15T16:10:20.883Z,42.65
2022-12-15T16:12:51.819Z,40.20
2022-12-15T16:15:21.926Z,39.03
2022-12-15T16:17:50.415Z,37.55
2022-12-15T16:20:21.201Z,44.85
2022-12-15T16:22:55.761Z,44.83
2022-12-15T16:25:33.116Z,41.65
2022-12-15T16:28:14.171Z,40.92
2022-12-15T16:30:43.140Z,35.42
2022-12-15T16:33:11.928Z,50.50
2022-12-15T16:35:40.387Z,45.53
2022-12-15T16:38:15.825Z,43.13
2022-12-15T16:40:43.979Z,42.40
2022-12-15T16:43:16.018Z,42.92
2022-12-15T16:45:45.774Z,42.72
2022-12-15T16:48:14.290Z,44.00
2022-12-15T16:50:43.998Z,44.55
2022-12-15T16:53:17.239Z,43.05
2022-12-15T16:55:46.191Z,41.00
2022-12-15T16:58:16.915Z,42.10
2022-12-15T17:00:45.767Z,38.40
2022-12-15T17:03:14.756Z,40.55
2022-12-15T17:05:44.776Z,40.45
2022-12-15T17:08:19.195Z,41.95
2022-12-15T17:10:48.349Z,47.08
2022-12-15T17:13:22.727Z,45.33
2022-12-15T17:15:50.616Z,48.50
2022-12-15T17:18:18.466Z,50.22
2022-12-15T17:20:46.331Z,56.42
2022-12-15T17:23:21.009Z,44.75
2022-12-15T17:26:21.150Z,52.10
2022-12-15T17:28:39.088Z,44.25
2022-12-15T17:31:06.987Z,49.47
2022-12-15T17:33:35.949Z,50.72
2022-12-15T17:36:12.865Z,50.95
2022-12-15T17:38:42.000Z,130.23
2022-12-15T17:41:23.637Z,125.72
2022-12-15T17:46:48.812Z,55.33
2022-12-15T17:49:16.944Z,61.22
2022-12-15T17:51:45.384Z,59.22
2022-12-15T17:54:17.006Z,62.80
2022-12-15T17:56:47.365Z,56.63
2022-12-15T17:59:16.706Z,66.07
2022-12-15T18:04:12.659Z,76.90
2022-12-15T18:06:42.042Z,70.22
2022-12-15T18:11:45.124Z,64.15
2022-12-15T18:14:14.755Z,52.38
2022-12-15T18:16:42.613Z,58.72
2022-12-15T18:19:10.487Z,66.68
2022-12-15T18:21:38.615Z,60.40
2022-12-15T18:24:13.206Z,54.05
2022-12-15T18:26:41.001Z,49.08
2022-12-15T18:29:14.411Z,51.65
2022-12-15T18:31:42.729Z,51.42
2022-12-15T18:34:13.666Z,66.43
2022-12-15T18:36:41.521Z,51.00
2022-12-15T18:39:18.085Z,55.70
2022-12-15T18:41:46.596Z,66.13
2022-12-15T18:44:22.535Z,62.20
2022-12-15T18:46:51.294Z,60.60
2022-12-15T18:49:21.553Z,66.50
2022-12-15T18:51:50.247Z,71.88
2022-12-15T18:54:19.760Z,64.53
2022-12-15T18:56:50.520Z,81.18
2022-12-15T18:59:20.877Z,98.47
2022-12-15T19:01:49.807Z,90.70
2022-12-15T19:04:17.818Z,107.55
2022-12-15T19:06:45.995Z,118.18
2022-12-15T19:09:17.766Z,102.88
2022-12-15T19:12:17.608Z,92.50
2022-12-15T19:14:47.741Z,95.07
2022-12-15T19:17:35.283Z,86.47
2022-12-15T19:20:22.303Z,103.15
2022-12-15T19:22:50.604Z,110.75
2022-12-15T19:25:25.508Z,89.55
2022-12-15T19:27:58.429Z,96.22
2022-12-15T19:30:28.964Z,111.80
2022-12-15T19:32:57.130Z,99.60
2022-12-15T19:35:25.375Z,94.78
2022-12-15T19:37:57.715Z,98.13
2022-12-15T19:40:30.125Z,87.10
2022-12-15T19:42:59.132Z,95.47
2022-12-15T19:45:30.127Z,97.45
2022-12-15T19:47:58.202Z,110.05
2022-12-15T19:50:28.797Z,122.78
2022-12-15T19:53:00.624Z,122.18
2022-12-15T19:55:32.505Z,105.28
2022-12-15T19:58:00.832Z,99.15
2022-12-15T20:00:29.967Z,94.43
2022-12-15T20:02:58.017Z,97.65
2022-12-15T20:05:26.720Z,100.50
2022-12-15T20:07:55.433Z,108.03
2022-12-15T20:10:32.311Z,100.82
2022-12-15T20:13:00.828Z,88.78
2022-12-15T20:15:30.045Z,103.50
2022-12-15T20:17:58.097Z,96.88
2022-12-15T20:20:27.872Z,94.43
2022-12-15T20:22:57.333Z,89.70
2022-12-15T20:25:28.479Z,90.18
2022-12-15T20:27:56.940Z,80.25
2022-12-15T20:30:27.118Z,81.95
2022-12-15T20:32:56.321Z,80.80
2022-12-15T20:37:52.518Z,86.88
2022-12-15T20:40:23.687Z,74.75
2022-12-15T20:42:52.773Z,74.18
2022-12-15T20:45:23.165Z,82.93
2022-12-15T20:47:53.192Z,69.85
2022-12-15T20:50:29.306Z,70.60
2022-12-15T20:52:57.112Z,73.47
2022-12-15T20:55:25.026Z,66.75
2022-12-15T20:57:53.552Z,74.65
2022-12-15T21:00:22.634Z,80.38
2022-12-15T21:02:51.980Z,68.78
2022-12-15T21:05:22.271Z,66.85
2022-12-15T21:07:51.691Z,64.40
2022-12-15T21:10:21.318Z,62.38
2022-12-15T21:12:50.504Z,68.63
2022-12-15T21:15:20.909Z,60.00
2022-12-15T21:17:57.245Z,62.70
2022-12-15T21:23:19.666Z,61.30
2022-12-15T21:25:48.249Z,62.97
2022-12-15T21:28:16.348Z,65.68
2022-12-15T21:30:44.792Z,62.70
2022-12-15T21:33:12.941Z,59.63
2022-12-15T21:35:42.360Z,63.45
2022-12-15T21:40:48.863Z,71.00
2022-12-15T21:43:16.696Z,75.13
2022-12-15T21:45:44.473Z,77.47
2022-12-15T21:48:31.011Z,91.60
2022-12-15T21:50:59.045Z,62.95
2022-12-15T21:53:28.249Z,59.40
2022-12-15T21:55:57.452Z,63.38
2022-12-15T21:58:27.297Z,58.28
2022-12-15T22:00:55.207Z,69.32
2022-12-15T22:03:23.018Z,55.60
2022-12-15T22:05:50.811Z,55.92
2022-12-15T22:08:21.948Z,55.83
2022-12-15T22:10:52.927Z,54.60
2022-12-15T22:13:23.903Z,67.13
2022-12-15T22:15:51.959Z,64.28
2022-12-15T22:18:22.269Z,68.07
2022-12-15T22:20:52.381Z,69.20
2022-12-15T22:23:21.340Z,64.32
2022-12-15T22:25:55.985Z,64.32
2022-12-15T22:28:26.516Z,71.20
2022-12-15T22:30:55.891Z,71.78
2022-12-15T22:33:25.623Z,71.78
2022-12-15T22:35:54.915Z,70.70
2022-12-15T22:38:23.952Z,62.17
2022-12-15T22:40:55.488Z,69.03
2022-12-15T22:43:27.547Z,62.13
2022-12-15T22:45:56.310Z,64.13
2022-12-15T22:48:26.427Z,63.05
2022-12-15T22:50:54.257Z,66.55
2022-12-15T22:53:22.935Z,66.35
2022-12-15T22:55:51.041Z,64.95
2022-12-15T22:58:27.514Z,62.97
2022-12-15T23:00:57.695Z,61.00
2022-12-15T23:03:28.819Z,62.53
2022-12-15T23:05:58.555Z,55.88
2022-12-15T23:08:26.309Z,50.58
2022-12-15T23:11:11.565Z,49.03
2022-12-15T23:13:40.718Z,56.97
2022-12-15T23:16:21.408Z,51.22
2022-12-15T23:18:50.750Z,54.53
2022-12-15T23:21:21.016Z,54.67
2022-12-15T23:23:49.166Z,49.80
2022-12-15T23:26:19.017Z,50.85
2022-12-15T23:28:48.722Z,53.35
2022-12-15T23:31:17.066Z,48.70
2022-12-15T23:33:44.823Z,52.43
2022-12-15T23:36:13.156Z,47.30
2022-12-15T23:38:40.921Z,45.38
2022-12-15T23:41:08.656Z,42.72
2022-12-15T23:43:36.397Z,51.60
2022-12-15T23:46:07.582Z,46.70
2022-12-15T23:48:38.564Z,41.85
2022-12-15T23:51:08.882Z,42.03
2022-12-15T23:53:38.762Z,42.70
2022-12-15T23:56:09.549Z,36.65
2022-12-15T23:58:38.011Z,34.88
